createdAt,value
2022-12-13T00:01:25.768Z,19.27
2022-12-13T00:03:53.694Z,22.95
2022-12-13T00:06:20.449Z,20.45
2022-12-13T00:08:47.310Z,23.02
2022-12-13T00:11:14.671Z,21.13
2022-12-13T00:13:42.608Z,21.52
2022-12-13T00:16:14.957Z,21.88
2022-12-13T00:18:42.097Z,21.27
2022-12-13T00:21:14.638Z,21.90
2022-12-13T00:23:41.901Z,20.85
2022-12-13T00:26:18.415Z,24.55
2022-12-13T00:28:49.044Z,21.30
2022-12-13T00:34:03.225Z,22.05
2022-12-13T00:36:29.893Z,22.33
2022-12-13T00:39:02.281Z,22.48
2022-12-13T00:41:34.632Z,21.10
2022-12-13T00:44:02.491Z,20.83
2022-12-13T00:46:29.632Z,21.75
2022-12-13T00:48:58.936Z,20.42
2022-12-13T00:51:27.163Z,21.45
2022-12-13T00:53:55.380Z,20.90
2022-12-13T00:56:25.501Z,22.17
2022-12-13T00:58:53.408Z,22.30
2022-12-13T01:01:24.294Z,21.52
2022-12-13T01:03:53.190Z,20.85
2022-12-13T01:06:23.209Z,21.30
2022-12-13T01:08:49.957Z,20.85
2022-12-13T01:11:16.865Z,22.05
2022-12-13T01:13:44.513Z,23.13
2022-12-13T01:16:12.560Z,23.40
2022-12-13T01:18:40.351Z,22.27
2022-12-13T01:21:14.867Z,22.42
2022-12-13T01:23:42.713Z,23.83
2022-12-13T01:26:15.288Z,20.45
2022-12-13T01:28:42.333Z,22.55
2022-12-13T01:31:11.732Z,23.77
2022-12-13T01:33:39.087Z,23.80
2022-12-13T01:36:09.171Z,22.10
2022-12-13T01:38:37.799Z,24.02
2022-12-13T01:41:17.023Z,20.55
2022-12-13T01:43:44.700Z,23.20
2022-12-13T01:46:12.355Z,21.30
2022-12-13T01:49:00.413Z,22.05
2022-12-13T01:51:43.788Z,22.38
2022-12-13T01:54:14.534Z,22.58
2022-12-13T01:56:54.133Z,21.42
2022-12-13T01:59:28.188Z,24.05
2022-12-13T02:01:54.971Z,21.60
2022-12-13T02:04:34.077Z,21.42
2022-12-13T02:07:01.089Z,20.63
2022-12-13T02:09:28.112Z,22.58
2022-12-13T02:11:55.245Z,21.63
2022-12-13T02:14:21.851Z,24.95
2022-12-13T02:17:04.349Z,22.27
2022-12-13T02:20:09.196Z,22.25
2022-12-13T02:23:12.899Z,22.02
2022-12-13T02:26:00.236Z,24.00
2022-12-13T02:29:06.661Z,20.98
2022-12-13T02:32:00.634Z,20.45
2022-12-13T02:34:36.654Z,23.08
2022-12-13T02:37:17.790Z,23.15
2022-12-13T02:39:54.684Z,23.40
2022-12-13T02:42:34.561Z,22.13
2022-12-13T02:45:29.925Z,22.58
2022-12-13T02:47:59.842Z,22.13
2022-12-13T02:50:28.220Z,24.83
2022-12-13T02:52:55.635Z,21.40
2022-12-13T02:55:27.793Z,21.42
2022-12-13T02:57:55.045Z,21.65
2022-12-13T03:00:28.377Z,22.27
2022-12-13T03:03:22.876Z,21.15
2022-12-13T03:06:14.365Z,21.17
2022-12-13T03:09:09.724Z,21.40
2022-12-13T03:12:12.093Z,21.40
2022-12-13T03:14:45.226Z,22.05
2022-12-13T03:17:16.281Z,21.92
2022-12-13T03:19:43.397Z,22.58
2022-12-13T03:22:10.134Z,22.33
2022-12-13T03:24:36.735Z,21.27
2022-12-13T03:27:04.032Z,23.63
2022-12-13T03:29:30.622Z,23.33
2022-12-13T03:31:57.220Z,22.05
2022-12-13T03:34:23.972Z,23.83
2022-12-13T03:36:52.376Z,23.50
2022-12-13T03:39:19.863Z,22.98
2022-12-13T03:41:46.762Z,22.20
2022-12-13T03:44:13.507Z,21.92
2022-12-13T03:46:40.502Z,21.98
2022-12-13T03:49:07.346Z,23.67
2022-12-13T03:51:34.491Z,21.98
2022-12-13T03:54:01.117Z,20.55
2022-12-13T03:56:27.732Z,20.48
2022-12-13T03:58:54.381Z,23.05
2022-12-13T04:01:22.050Z,20.60
2022-12-13T04:03:48.818Z,19.73
2022-12-13T04:06:22.502Z,22.00
2022-12-13T04:08:50.973Z,21.23
2022-12-13T04:11:36.509Z,20.27
2022-12-13T04:14:22.385Z,20.65
2022-12-13T04:16:50.676Z,21.02
2022-12-13T04:19:23.119Z,19.75
2022-12-13T04:21:51.583Z,20.52
2022-12-13T04:24:18.199Z,19.85
2022-12-13T04:26:44.799Z,20.52
2022-12-13T04:29:15.233Z,20.55
2022-12-13T04:31:41.908Z,21.45
2022-12-13T04:34:08.763Z,19.33
2022-12-13T04:36:35.436Z,19.65
2022-12-13T04:39:03.576Z,19.10
2022-12-13T04:41:49.975Z,20.20
2022-12-13T04:44:27.931Z,18.80
2022-12-13T04:46:55.812Z,19.05
2022-12-13T04:49:27.865Z,19.65
2022-12-13T04:51:59.024Z,19.40
2022-12-13T04:54:28.311Z,18.98
2022-12-13T04:57:07.175Z,21.70
2022-12-13T04:59:34.261Z,19.05
2022-12-13T05:02:00.882Z,19.77
2022-12-13T05:04:32.266Z,19.25
2022-12-13T05:07:01.142Z,19.27
2022-12-13T05:09:27.745Z,17.33
2022-12-13T05:12:01.310Z,19.95
2022-12-13T05:14:32.256Z,17.15
2022-12-13T05:17:00.228Z,18.73
2022-12-13T05:19:31.293Z,18.75
2022-12-13T05:21:58.402Z,19.55
2022-12-13T05:24:29.029Z,16.65
2022-12-13T05:26:55.622Z,18.00
2022-12-13T05:29:22.233Z,21.73
2022-12-13T05:31:48.869Z,15.68
2022-12-13T05:34:15.564Z,19.42
2022-12-13T05:36:42.147Z,18.35
2022-12-13T05:39:28.777Z,15.05
2022-12-13T05:42:02.122Z,17.48
2022-12-13T05:44:32.999Z,19.58
2022-12-13T05:47:02.532Z,18.63
2022-12-13T05:49:30.192Z,18.40
2022-12-13T05:51:56.822Z,18.80
2022-12-13T05:54:23.559Z,18.38
2022-12-13T05:56:50.149Z,17.65
2022-12-13T05:59:16.867Z,18.02
2022-12-13T06:01:43.962Z,18.60
2022-12-13T06:04:11.763Z,19.42
2022-12-13T06:06:38.511Z,17.58
2022-12-13T06:09:05.178Z,19.13
2022-12-13T06:11:32.645Z,20.95
2022-12-13T06:14:00.585Z,19.33
2022-12-13T06:16:28.119Z,19.52
2022-12-13T06:19:03.293Z,19.08
2022-12-13T06:21:41.164Z,18.23
2022-12-13T06:24:13.169Z,18.27
2022-12-13T06:26:39.751Z,21.00
2022-12-13T06:29:06.598Z,19.40
2022-12-13T06:31:33.190Z,18.13
2022-12-13T06:34:14.589Z,18.90
2022-12-13T06:36:43.085Z,19.58
2022-12-13T06:39:09.724Z,18.48
2022-12-13T06:41:36.845Z,19.85
2022-12-13T06:44:03.785Z,20.50
2022-12-13T06:46:30.457Z,17.15
2022-12-13T06:48:57.299Z,18.40
2022-12-13T06:51:33.229Z,15.60
2022-12-13T06:54:02.245Z,17.45
2022-12-13T06:56:30.008Z,16.67
2022-12-13T06:59:01.739Z,19.02
2022-12-13T07:01:37.201Z,17.90
2022-12-13T07:04:30.156Z,18.25
2022-12-13T07:06:55.906Z,15.70
2022-12-13T07:09:32.562Z,17.48
2022-12-13T07:11:59.874Z,17.92
2022-12-13T07:14:27.096Z,17.02
2022-12-13T07:16:57.939Z,18.95
2022-12-13T07:19:35.214Z,16.40
2022-12-13T07:22:06.168Z,18.55
2022-12-13T07:24:34.461Z,19.13
2022-12-13T07:27:01.792Z,16.77
2022-12-13T07:29:28.396Z,17.67
2022-12-13T07:31:55.049Z,15.57
2022-12-13T07:34:28.932Z,13.52
2022-12-13T07:36:55.884Z,15.13
2022-12-13T07:39:25.928Z,16.42
2022-12-13T07:41:55.427Z,17.75
2022-12-13T07:44:22.551Z,17.90
2022-12-13T07:46:49.204Z,15.98
2022-12-13T07:49:15.910Z,17.00
2022-12-13T07:51:42.894Z,16.00
2022-12-13T07:54:09.537Z,16.73
2022-12-13T07:56:36.491Z,16.40
2022-12-13T07:59:03.395Z,18.42
2022-12-13T08:01:34.272Z,17.08
2022-12-13T08:04:01.745Z,17.27
2022-12-13T08:06:30.261Z,18.50
2022-12-13T08:08:57.750Z,16.38
2022-12-13T08:11:24.705Z,13.98
2022-12-13T08:13:53.619Z,16.27
2022-12-13T08:16:27.802Z,15.55
2022-12-13T08:19:03.256Z,16.65
2022-12-13T08:24:29.963Z,16.08
2022-12-13T08:27:02.078Z,15.27
2022-12-13T08:29:35.900Z,16.20
2022-12-13T08:32:09.142Z,16.85
2022-12-13T08:34:37.155Z,16.15
2022-12-13T08:37:04.669Z,15.52
2022-12-13T08:39:35.391Z,16.15
2022-12-13T08:42:17.043Z,16.80
2022-12-13T08:44:51.359Z,14.65
2022-12-13T08:47:25.919Z,16.75
2022-12-13T08:50:02.354Z,16.52
2022-12-13T08:52:32.229Z,16.80
2022-12-13T08:55:08.880Z,15.65
2022-12-13T08:57:40.488Z,15.93
2022-12-13T09:00:11.366Z,17.20
2022-12-13T09:02:38.885Z,16.23
2022-12-13T09:05:08.144Z,15.50
2022-12-13T09:07:36.044Z,15.93
2022-12-13T09:10:07.027Z,21.52
2022-12-13T09:13:01.786Z,18.50
2022-12-13T09:15:34.696Z,17.90
2022-12-13T09:18:04.413Z,17.05
2022-12-13T09:20:32.351Z,19.05
2022-12-13T09:23:21.496Z,16.95
2022-12-13T09:26:05.969Z,17.13
2022-12-13T09:28:34.595Z,15.30
2022-12-13T09:31:01.210Z,16.83
2022-12-13T09:33:30.822Z,14.95
2022-12-13T09:35:58.111Z,14.30
2022-12-13T09:38:27.942Z,16.23
2022-12-13T09:40:58.387Z,15.75
2022-12-13T09:43:32.680Z,17.02
2022-12-13T09:46:13.236Z,17.25
2022-12-13T09:48:51.663Z,17.52
2022-12-13T09:51:28.453Z,14.60
2022-12-13T09:54:05.038Z,16.27
2022-12-13T09:56:33.378Z,16.20
2022-12-13T09:59:00.069Z,15.38
2022-12-13T10:01:26.715Z,14.57
2022-12-13T10:03:55.851Z,13.70
2022-12-13T10:06:24.925Z,15.00
2022-12-13T10:08:58.767Z,15.30
2022-12-13T10:11:32.341Z,12.77
2022-12-13T10:14:09.681Z,14.00
2022-12-13T10:16:37.239Z,14.40
2022-12-13T10:19:29.124Z,14.00
2022-12-13T10:22:01.312Z,12.82
2022-12-13T10:24:49.576Z,15.35
2022-12-13T10:27:40.397Z,12.98
2022-12-13T10:30:13.464Z,14.50
2022-12-13T10:32:43.561Z,13.35
2022-12-13T10:35:29.481Z,13.40
2022-12-13T10:37:59.448Z,12.15
2022-12-13T10:40:33.775Z,14.85
2022-12-13T10:43:21.020Z,12.95
2022-12-13T10:45:59.257Z,15.70
2022-12-13T10:48:38.364Z,13.73
2022-12-13T10:51:07.574Z,12.98
2022-12-13T10:53:43.994Z,13.43
2022-12-13T10:56:23.620Z,14.63
2022-12-13T10:59:22.639Z,13.88
2022-12-13T11:01:49.324Z,13.73
2022-12-13T11:04:32.307Z,14.52
2022-12-13T11:07:02.340Z,13.82
2022-12-13T11:09:38.293Z,15.40
2022-12-13T11:12:14.592Z,14.20
2022-12-13T11:15:02.595Z,22.77
2022-12-13T11:17:31.650Z,13.40
2022-12-13T11:20:02.469Z,14.02
2022-12-13T11:22:31.977Z,13.23
2022-12-13T11:25:09.207Z,11.10
2022-12-13T11:27:51.003Z,12.77
2022-12-13T11:30:28.637Z,12.57
2022-12-13T11:33:16.886Z,11.35
2022-12-13T11:36:02.958Z,12.55
2022-12-13T11:38:48.823Z,13.15
2022-12-13T11:41:31.384Z,12.45
2022-12-13T11:44:08.456Z,12.98
2022-12-13T11:46:43.556Z,13.57
2022-12-13T11:49:27.693Z,12.93
2022-12-13T11:52:01.245Z,10.73
2022-12-13T11:54:53.781Z,13.20
2022-12-13T11:57:30.888Z,12.25
2022-12-13T12:00:12.918Z,13.00
2022-12-13T12:02:45.837Z,12.05
2022-12-13T12:05:24.277Z,8.90
2022-12-13T12:08:31.822Z,13.65
2022-12-13T12:10:50.114Z,11.95
2022-12-13T12:13:23.320Z,14.32
2022-12-13T12:16:13.372Z,11.05
2022-12-13T12:18:40.169Z,11.90
2022-12-13T12:22:12.161Z,12.50
2022-12-13T12:24:30.482Z,13.73
2022-12-13T12:27:40.470Z,10.88
2022-12-13T12:30:22.845Z,13.60
2022-12-13T12:33:10.060Z,12.52
2022-12-13T12:36:04.981Z,12.07
2022-12-13T12:38:37.514Z,12.35
2022-12-13T12:41:19.365Z,12.07
2022-12-13T12:44:09.777Z,11.15
2022-12-13T12:47:01.904Z,12.60
2022-12-13T12:50:25.834Z,10.88
2022-12-13T12:53:24.340Z,12.50
2022-12-13T12:56:18.430Z,11.25
2022-12-13T12:59:03.028Z,12.65
2022-12-13T13:02:03.300Z,12.60
2022-12-13T13:04:35.840Z,13.13
2022-12-13T13:07:39.689Z,13.50
2022-12-13T13:10:16.881Z,11.32
2022-12-13T13:12:53.590Z,11.05
2022-12-13T13:15:39.361Z,5.43
2022-12-13T13:18:44.900Z,11.35
2022-12-13T13:21:23.558Z,17.75
2022-12-13T13:24:06.330Z,11.98
2022-12-13T13:26:42.545Z,14.68
2022-12-13T13:29:27.167Z,12.13
2022-12-13T13:32:11.022Z,13.57
2022-12-13T13:34:39.608Z,11.07
2022-12-13T13:37:22.993Z,9.40
2022-12-13T13:40:30.251Z,9.95
2022-12-13T13:43:06.347Z,11.07
2022-12-13T13:46:02.452Z,10.15
2022-12-13T13:48:45.056Z,8.55
2022-12-13T13:51:49.385Z,9.95
2022-12-13T13:54:53.323Z,8.50
2022-12-13T13:58:07.881Z,9.00
2022-12-13T14:00:43.231Z,8.50
2022-12-13T14:03:38.941Z,9.65
2022-12-13T14:06:24.881Z,7.80
2022-12-13T14:09:14.399Z,9.88
2022-12-13T14:11:52.902Z,8.40
2022-12-13T14:14:49.888Z,14.80
2022-12-13T14:17:54.736Z,13.65
2022-12-13T14:20:42.815Z,10.98
2022-12-13T14:23:33.225Z,10.02
2022-12-13T14:26:18.296Z,10.85
2022-12-13T14:28:57.906Z,9.90
2022-12-13T14:31:33.285Z,8.73
2022-12-13T14:34:01.565Z,11.30
2022-12-13T14:36:33.862Z,13.10
2022-12-13T14:39:06.807Z,14.23
2022-12-13T14:41:56.674Z,9.93
2022-12-13T14:44:33.695Z,8.80
2022-12-13T14:47:01.394Z,9.98
2022-12-13T14:49:30.845Z,9.18
2022-12-13T14:52:03.467Z,10.73
2022-12-13T14:54:45.099Z,13.80
2022-12-13T14:57:21.258Z,9.73
2022-12-13T14:59:55.208Z,9.82
2022-12-13T15:02:30.881Z,7.55
2022-12-13T15:05:04.027Z,8.50
2022-12-13T15:07:35.716Z,7.60
2022-12-13T15:10:08.211Z,7.93
2022-12-13T15:12:34.862Z,8.75
2022-12-13T15:15:05.234Z,8.38
2022-12-13T15:17:37.479Z,7.72
2022-12-13T15:20:26.365Z,7.50
2022-12-13T15:23:23.250Z,8.30
2022-12-13T15:26:28.553Z,7.57
2022-12-13T15:29:00.947Z,8.10
2022-12-13T15:31:36.100Z,7.85
2022-12-13T15:34:29.192Z,7.82
2022-12-13T15:37:05.370Z,8.35
2022-12-13T15:39:37.638Z,7.70
2022-12-13T15:42:04.839Z,8.20
2022-12-13T15:44:40.796Z,6.78
2022-12-13T15:47:28.848Z,7.45
2022-12-13T15:50:02.437Z,7.13
2022-12-13T15:52:38.611Z,8.20
2022-12-13T15:55:05.166Z,6.85
2022-12-13T15:57:34.960Z,7.00
2022-12-13T16:00:44.817Z,9.82
2022-12-13T16:03:19.105Z,8.70
2022-12-13T16:05:54.722Z,8.45
2022-12-13T16:08:31.132Z,7.25
2022-12-13T16:10:58.565Z,6.95
2022-12-13T16:13:27.880Z,7.68
2022-12-13T16:16:00.201Z,7.80
2022-12-13T16:18:52.121Z,8.00
2022-12-13T16:21:19.156Z,9.27
2022-12-13T16:23:48.567Z,7.43
2022-12-13T16:26:22.346Z,9.43
2022-12-13T16:28:49.017Z,7.40
2022-12-13T16:31:23.143Z,8.85
2022-12-13T16:33:50.217Z,7.13
2022-12-13T16:36:16.970Z,8.50
2022-12-13T16:38:43.891Z,8.32
2022-12-13T16:41:11.246Z,6.90
2022-12-13T16:43:46.185Z,7.50
2022-12-13T16:47:12.980Z,8.50
2022-12-13T16:49:01.741Z,6.63
2022-12-13T16:51:28.344Z,7.05
2022-12-13T16:53:54.942Z,8.63
2022-12-13T16:56:21.654Z,9.98
2022-12-13T16:58:50.292Z,9.38
2022-12-13T17:01:22.257Z,13.93
2022-12-13T17:03:48.916Z,8.70
2022-12-13T17:06:22.538Z,12.10
2022-12-13T17:08:49.223Z,8.40
2022-12-13T17:11:18.359Z,10.30
2022-12-13T17:13:47.375Z,8.38
2022-12-13T17:16:14.350Z,7.63
2022-12-13T17:18:41.086Z,7.75
2022-12-13T17:21:09.148Z,7.28
2022-12-13T17:23:36.147Z,6.72
2022-12-13T17:26:07.881Z,6.90
2022-12-13T17:28:35.069Z,7.72
2022-12-13T17:31:07.181Z,8.43
2022-12-13T17:33:34.310Z,7.43
2022-12-13T17:36:03.796Z,7.28
2022-12-13T17:38:30.861Z,8.82
2022-12-13T17:40:57.708Z,8.32
2022-12-13T17:43:34.202Z,7.55
2022-12-13T17:46:04.162Z,6.82
2022-12-13T17:48:37.311Z,8.27
2022-12-13T17:51:08.289Z,6.90
2022-12-13T17:53:35.998Z,8.10
2022-12-13T17:56:06.468Z,8.65
2022-12-13T17:58:34.220Z,7.35
2022-12-13T18:01:14.278Z,7.95
2022-12-13T18:03:41.299Z,9.15
2022-12-13T18:06:08.094Z,7.97
2022-12-13T18:08:36.354Z,8.13
2022-12-13T18:13:54.703Z,7.57
2022-12-13T18:16:26.668Z,6.90
2022-12-13T18:18:56.964Z,7.68
2022-12-13T18:21:25.071Z,6.80
2022-12-13T18:23:54.962Z,5.38
2022-12-13T18:26:23.469Z,7.07
2022-12-13T18:28:50.413Z,6.75
2022-12-13T18:31:23.334Z,7.32
2022-12-13T18:33:51.936Z,7.05
2022-12-13T18:36:20.783Z,7.22
2022-12-13T18:38:47.947Z,7.10
2022-12-13T18:41:18.303Z,7.80
2022-12-13T18:43:45.818Z,7.38
2022-12-13T18:46:14.416Z,7.90
2022-12-13T18:48:41.630Z,6.72
2022-12-13T18:51:10.267Z,6.30
2022-12-13T18:53:38.397Z,7.30
2022-12-13T18:56:10.471Z,8.00
2022-12-13T18:58:41.597Z,6.75
2022-12-13T19:01:10.460Z,6.75
2022-12-13T19:03:38.075Z,6.53
2022-12-13T19:06:06.530Z,7.30
2022-12-13T19:08:33.624Z,7.15
2022-12-13T19:11:01.754Z,7.93
2022-12-13T19:13:29.874Z,6.70
2022-12-13T19:15:58.668Z,7.05
2022-12-13T19:18:25.306Z,8.18
2022-12-13T19:20:53.554Z,8.18
2022-12-13T19:23:20.870Z,7.10
2022-12-13T19:25:48.808Z,8.00
2022-12-13T19:28:17.402Z,6.70
2022-12-13T19:30:45.943Z,6.95
2022-12-13T19:33:13.450Z,8.68
2022-12-13T19:35:42.930Z,7.57
2022-12-13T19:38:10.063Z,7.30
2022-12-13T19:40:40.028Z,5.80
2022-12-13T19:43:06.907Z,7.55
2022-12-13T19:45:34.536Z,8.80
2022-12-13T19:48:01.221Z,7.55
2022-12-13T19:50:29.530Z,6.95
2022-12-13T19:52:56.786Z,7.28
2022-12-13T19:55:23.412Z,7.53
2022-12-13T19:57:50.049Z,6.40
2022-12-13T20:00:17.251Z,7.35
2022-12-13T20:02:43.971Z,7.45
2022-12-13T20:05:10.733Z,6.28
2022-12-13T20:07:37.368Z,10.32
2022-12-13T20:10:04.848Z,6.50
2022-12-13T20:12:37.087Z,5.68
2022-12-13T20:15:08.401Z,8.27
2022-12-13T20:17:35.759Z,7.40
2022-12-13T20:20:03.717Z,8.18
2022-12-13T20:22:31.044Z,7.25
2022-12-13T20:24:57.755Z,7.15
2022-12-13T20:27:24.490Z,5.63
2022-12-13T20:29:51.179Z,6.82
2022-12-13T20:32:20.910Z,6.75
2022-12-13T20:34:53.068Z,6.65
2022-12-13T20:37:23.659Z,7.18
2022-12-13T20:39:50.777Z,6.78
2022-12-13T20:42:17.449Z,7.28
2022-12-13T20:44:44.858Z,6.60
2022-12-13T20:47:11.732Z,7.47
2022-12-13T20:49:38.508Z,6.97
2022-12-13T20:52:05.355Z,7.18
2022-12-13T20:54:32.076Z,6.05
2022-12-13T20:56:59.474Z,6.70
2022-12-13T20:59:26.156Z,6.95
2022-12-13T21:01:52.821Z,7.28
2022-12-13T21:04:19.574Z,6.20
2022-12-13T21:06:46.242Z,5.70
2022-12-13T21:09:13.065Z,6.72
2022-12-13T21:11:41.025Z,6.80
2022-12-13T21:14:22.185Z,6.55
2022-12-13T21:16:51.653Z,6.90
2022-12-13T21:19:23.657Z,7.13
2022-12-13T21:21:51.502Z,5.22
2022-12-13T21:24:20.410Z,6.90
2022-12-13T21:26:47.573Z,4.80
2022-12-13T21:29:15.995Z,5.57
2022-12-13T21:31:44.705Z,5.78
2022-12-13T21:34:16.758Z,6.78
2022-12-13T21:36:46.786Z,6.20
2022-12-13T21:39:19.449Z,4.10
2022-12-13T21:41:46.285Z,5.93
2022-12-13T21:44:15.396Z,4.93
2022-12-13T21:49:29.249Z,5.70
2022-12-13T21:51:55.855Z,5.25
2022-12-13T21:54:22.673Z,5.22
2022-12-13T21:57:08.338Z,4.80
2022-12-13T21:59:35.293Z,3.75
2022-12-13T22:02:15.665Z,3.88
2022-12-13T22:04:46.656Z,5.43
2022-12-13T22:07:16.377Z,6.15
2022-12-13T22:09:44.118Z,4.63
2022-12-13T22:12:29.206Z,5.35
2022-12-13T22:14:55.810Z,5.15
2022-12-13T22:17:24.959Z,5.55
2022-12-13T22:19:54.473Z,6.00
2022-12-13T22:22:23.098Z,5.07
2022-12-13T22:24:53.834Z,4.95
2022-12-13T22:27:24.084Z,4.20
2022-12-13T22:29:58.876Z,4.65
2022-12-13T22:32:28.072Z,5.45
2022-12-13T22:34:55.655Z,5.30
2022-12-13T22:37:22.673Z,5.75
2022-12-13T22:39:50.071Z,4.00
2022-12-13T22:42:16.708Z,5.93
2022-12-13T22:44:43.372Z,5.53
2022-12-13T22:47:10.134Z,5.65
2022-12-13T22:49:36.993Z,4.60
2022-12-13T22:52:03.782Z,5.60
2022-12-13T22:54:30.447Z,4.15
2022-12-13T22:56:57.105Z,5.20
2022-12-13T22:59:23.713Z,5.30
2022-12-13T23:01:50.488Z,5.00
2022-12-13T23:04:17.133Z,4.55
2022-12-13T23:06:43.915Z,4.32
2022-12-13T23:09:13.516Z,4.57
2022-12-13T23:11:58.621Z,4.95
2022-12-13T23:14:32.074Z,5.20
2022-12-13T23:16:59.526Z,4.25
2022-12-13T23:19:50.434Z,5.82
2022-12-13T23:22:15.346Z,5.05
2022-12-13T23:24:42.625Z,5.32
2022-12-13T23:27:09.240Z,5.45
2022-12-13T23:29:35.900Z,5.35
2022-12-13T23:32:02.557Z,4.35
2022-12-13T23:34:29.213Z,4.20
2022-12-13T23:36:55.816Z,5.28
2022-12-13T23:39:22.423Z,5.07
2022-12-13T23:41:49.132Z,4.45
2022-12-13T23:44:16.050Z,5.03
2022-12-13T23:46:48.241Z,5.05
2022-12-13T23:49:15.718Z,5.50
2022-12-13T23:51:42.463Z,5.15
2022-12-13T23:54:11.662Z,4.43
2022-12-13T23:56:38.320Z,4.57
2022-12-13T23:59:04.917Z,4.97
